Time;durP1;ratioP1;P1;durP2;ratioP2;P2;SDS_P1;SDS_P2;PMS_P1;PMS_P2;Temp;Humidity;BMP_temperature;BMP_pressure;BME280_temperature;BME280_humidity;BME280_pressure;Samples;Min_cycle;Max_cycle;Signal;HPM_P1;HPM_P2
2022/07/10 00:01:30;;;;;;;9.60;1.27;;;;;;;;;;5134018;27;20043;-68
2022/07/10 00:03:56;;;;;;;10.48;1.55;;;;;;;;;;5134090;27;20053;-68
2022/07/10 00:06:22;;;;;;;8.60;1.70;;;;;;;;;;5134641;27;20542;-68
2022/07/10 00:08:48;;;;;;;9.25;1.30;;;;;;;;;;5133682;27;20381;-68
2022/07/10 00:11:14;;;;;;;6.00;1.48;;;;;;;;;;5134373;27;20046;-68
2022/07/10 00:13:40;;;;;;;9.32;1.50;;;;;;;;;;5134599;27;20046;-68
2022/07/10 00:16:06;;;;;;;10.35;1.83;;;;;;;;;;5132475;27;20381;-68
2022/07/10 00:18:32;;;;;;;8.13;1.63;;;;;;;;;;5133174;27;20039;-68
2022/07/10 00:20:58;;;;;;;10.57;2.05;;;;;;;;;;5134236;27;20039;-68
2022/07/10 00:23:24;;;;;;;7.05;1.42;;;;;;;;;;5132360;27;20520;-68
2022/07/10 00:25:50;;;;;;;11.57;1.85;;;;;;;;;;5127702;27;20063;-68
2022/07/10 00:28:16;;;;;;;9.05;1.45;;;;;;;;;;5113493;28;20534;-68
2022/07/10 00:30:43;;;;;;;5.28;1.25;;;;;;;;;;5112484;28;20120;-68
2022/07/10 00:33:09;;;;;;;5.53;1.38;;;;;;;;;;5113245;28;20039;-68
2022/07/10 00:35:35;;;;;;;3.88;1.08;;;;;;;;;;5113670;28;20039;-68
2022/07/10 00:38:01;;;;;;;7.78;1.58;;;;;;;;;;5112838;28;20131;-68
2022/07/10 00:40:27;;;;;;;8.23;1.33;;;;;;;;;;5113263;28;20036;-68
2022/07/10 00:42:53;;;;;;;9.73;1.65;;;;;;;;;;5113274;28;20104;-68
2022/07/10 00:45:19;;;;;;;8.48;1.20;;;;;;;;;;5112321;28;20071;-68
2022/07/10 00:47:45;;;;;;;6.85;1.40;;;;;;;;;;5113294;28;20044;-68
2022/07/10 00:50:12;;;;;;;6.63;1.60;;;;;;;;;;5113148;28;20043;-68
2022/07/10 00:52:38;;;;;;;11.07;1.92;;;;;;;;;;5112423;28;20035;-68
2022/07/10 00:55:05;;;;;;;9.32;1.63;;;;;;;;;;5113025;28;20675;-68
2022/07/10 00:57:32;;;;;;;6.35;1.25;;;;;;;;;;5113128;28;20363;-68
2022/07/10 00:59:58;;;;;;;7.10;1.10;;;;;;;;;;5112421;27;20093;-68
2022/07/10 01:02:24;;;;;;;6.95;1.42;;;;;;;;;;5112880;28;20036;-68
2022/07/10 01:04:51;;;;;;;6.50;1.55;;;;;;;;;;5110676;28;20394;-68
2022/07/10 01:07:18;;;;;;;8.23;1.30;;;;;;;;;;5112132;28;20043;-68
2022/07/10 01:09:44;;;;;;;9.77;1.38;;;;;;;;;;5112717;28;20052;-68
2022/07/10 01:12:11;;;;;;;10.35;2.03;;;;;;;;;;5112603;28;20040;-68
2022/07/10 01:14:39;;;;;;;6.38;1.52;;;;;;;;;;5112126;28;20043;-68
2022/07/10 01:17:06;;;;;;;9.40;1.40;;;;;;;;;;5112831;28;20039;-68
2022/07/10 01:19:32;;;;;;;11.63;1.90;;;;;;;;;;5112663;28;20454;-68
2022/07/10 01:21:58;;;;;;;11.07;1.70;;;;;;;;;;5111582;28;20126;-68
2022/07/10 01:24:24;;;;;;;6.78;1.75;;;;;;;;;;5112579;28;20071;-68
2022/07/10 01:26:51;;;;;;;7.85;1.30;;;;;;;;;;5127551;27;20043;-68
2022/07/10 01:29:17;;;;;;;9.30;1.98;;;;;;;;;;5132286;27;20043;-68
2022/07/10 01:31:43;;;;;;;9.32;1.80;;;;;;;;;;5132836;27;20114;-68
2022/07/10 01:34:09;;;;;;;12.50;1.67;;;;;;;;;;5133061;27;20496;-68
2022/07/10 01:36:36;;;;;;;7.47;1.77;;;;;;;;;;5131946;27;20118;-68
2022/07/10 01:39:03;;;;;;;8.65;1.35;;;;;;;;;;5132945;27;20039;-68
2022/07/10 01:41:29;;;;;;;7.50;1.60;;;;;;;;;;5132841;27;20035;-68
2022/07/10 01:43:55;;;;;;;8.00;1.63;;;;;;;;;;5132052;27;20070;-68
2022/07/10 01:46:21;;;;;;;9.18;1.50;;;;;;;;;;5132828;27;20534;-68
2022/07/10 01:48:47;;;;;;;10.35;1.48;;;;;;;;;;5132687;27;20070;-68
2022/07/10 01:51:14;;;;;;;8.80;1.50;;;;;;;;;;5131854;27;20035;-68
2022/07/10 01:53:40;;;;;;;13.52;2.00;;;;;;;;;;5132775;27;20035;-68
2022/07/10 01:56:07;;;;;;;9.15;1.55;;;;;;;;;;5132703;27;20113;-68
2022/07/10 01:58:34;;;;;;;7.63;1.90;;;;;;;;;;5132044;27;20043;-68
2022/07/10 02:01:00;;;;;;;5.82;1.40;;;;;;;;;;5132528;27;20038;-68
2022/07/10 02:06:11;;;;;;;5.68;1.30;;;;;;;;;;5131890;27;20039;-68
2022/07/10 02:08:37;;;;;;;10.98;1.58;;;;;;;;;;5132479;27;20108;-68
2022/07/10 02:11:03;;;;;;;7.18;2.00;;;;;;;;;;5132454;27;20035;-68
2022/07/10 02:13:29;;;;;;;7.28;1.48;;;;;;;;;;5131644;27;20122;-68
2022/07/10 02:15:55;;;;;;;5.25;1.40;;;;;;;;;;5133021;27;20035;-68
2022/07/10 02:18:22;;;;;;;8.95;1.30;;;;;;;;;;5136384;27;20088;-68
2022/07/10 02:20:48;;;;;;;12.35;1.58;;;;;;;;;;5135837;27;20042;-68
2022/07/10 02:23:14;;;;;;;12.98;1.95;;;;;;;;;;5136641;27;20035;-68
2022/07/10 02:25:40;;;;;;;5.75;1.40;;;;;;;;;;5131423;27;20036;-68
2022/07/10 02:28:06;;;;;;;11.00;1.55;;;;;;;;;;5115219;28;20035;-68
2022/07/10 02:30:32;;;;;;;9.43;1.45;;;;;;;;;;5115970;28;20462;-68
2022/07/10 02:32:58;;;;;;;6.75;1.48;;;;;;;;;;5115823;28;20046;-68
2022/07/10 02:35:24;;;;;;;13.60;1.50;;;;;;;;;;5115077;28;20051;-68
2022/07/10 02:37:50;;;;;;;8.85;1.52;;;;;;;;;;5115830;28;20040;-68
2022/07/10 02:40:16;;;;;;;8.63;1.80;;;;;;;;;;5115722;28;20067;-68
2022/07/10 02:42:42;;;;;;;10.00;1.67;;;;;;;;;;5114780;28;20569;-68
2022/07/10 02:45:09;;;;;;;10.60;1.90;;;;;;;;;;5115651;28;20462;-68
2022/07/10 02:47:35;;;;;;;6.15;1.60;;;;;;;;;;5115581;28;20044;-68
2022/07/10 02:50:01;;;;;;;7.93;2.03;;;;;;;;;;5114643;27;20733;-68
2022/07/10 02:52:30;;;;;;;9.85;1.63;;;;;;;;;;5115450;28;20096;-68
2022/07/10 02:54:56;;;;;;;9.63;1.63;;;;;;;;;;5115447;28;20559;-68
2022/07/10 02:57:22;;;;;;;11.30;1.73;;;;;;;;;;5114542;28;20032;-68
2022/07/10 02:59:48;;;;;;;8.75;1.50;;;;;;;;;;5115132;28;20126;-68
2022/07/10 03:02:14;;;;;;;9.82;1.55;;;;;;;;;;5115177;28;20050;-68
2022/07/10 03:04:40;;;;;;;6.25;1.70;;;;;;;;;;5113559;28;20067;-68
2022/07/10 03:07:07;;;;;;;7.95;1.30;;;;;;;;;;5114742;28;20078;-69
2022/07/10 03:09:33;;;;;;;8.70;1.50;;;;;;;;;;5114877;28;20105;-69
2022/07/10 03:12:00;;;;;;;8.82;1.58;;;;;;;;;;5115052;28;20034;-69
2022/07/10 03:14:26;;;;;;;11.18;1.80;;;;;;;;;;5114450;28;20347;-69
2022/07/10 03:16:52;;;;;;;13.68;1.60;;;;;;;;;;5115282;27;20103;-69
2022/07/10 03:19:18;;;;;;;5.95;1.25;;;;;;;;;;5115189;28;20044;-68
2022/07/10 03:21:45;;;;;;;10.75;1.67;;;;;;;;;;5113129;28;20044;-68
2022/07/10 03:24:11;;;;;;;9.10;1.40;;;;;;;;;;5114831;27;20405;-69
2022/07/10 03:26:37;;;;;;;9.43;1.50;;;;;;;;;;5127478;27;20458;-69
2022/07/10 03:29:03;;;;;;;5.68;1.60;;;;;;;;;;5133368;27;20053;-68
2022/07/10 03:31:29;;;;;;;9.65;1.25;;;;;;;;;;5135259;27;20462;-68
2022/07/10 03:33:55;;;;;;;6.57;1.35;;;;;;;;;;5135165;27;20042;-68
2022/07/10 03:36:21;;;;;;;7.22;1.70;;;;;;;;;;5134289;27;20041;-68
2022/07/10 03:38:47;;;;;;;7.93;1.35;;;;;;;;;;5134906;27;20047;-68
2022/07/10 03:41:16;;;;;;;7.32;1.38;;;;;;;;;;5134738;27;20039;-68
2022/07/10 03:43:42;;;;;;;7.13;1.27;;;;;;;;;;5134543;27;20039;-68
2022/07/10 03:46:08;;;;;;;8.20;1.30;;;;;;;;;;5135053;27;20038;-68
2022/07/10 03:48:35;;;;;;;9.63;1.30;;;;;;;;;;5134986;27;20050;-68
2022/07/10 03:51:01;;;;;;;8.10;1.45;;;;;;;;;;5133804;27;20038;-68
2022/07/10 03:53:27;;;;;;;7.63;1.30;;;;;;;;;;5134937;27;20027;-69
2022/07/10 03:55:54;;;;;;;10.98;1.65;;;;;;;;;;5134853;27;20526;-69
2022/07/10 03:58:20;;;;;;;8.73;1.58;;;;;;;;;;5134104;27;20039;-69
2022/07/10 04:00:46;;;;;;;8.45;1.25;;;;;;;;;;5134585;27;20084;-69
2022/07/10 04:03:13;;;;;;;13.70;1.70;;;;;;;;;;5134723;27;20036;-69
2022/07/10 04:05:39;;;;;;;6.82;1.27;;;;;;;;;;5132361;27;20126;-69
2022/07/10 04:08:06;;;;;;;7.32;1.20;;;;;;;;;;5134630;27;20047;-69
2022/07/10 04:10:32;;;;;;;8.35;1.52;;;;;;;;;;5134355;27;20035;-69
2022/07/10 04:12:58;;;;;;;10.13;1.52;;;;;;;;;;5133859;27;20122;-69
2022/07/10 04:15:25;;;;;;;10.35;1.30;;;;;;;;;;5134465;27;20039;-69
2022/07/10 04:17:51;;;;;;;5.47;1.05;;;;;;;;;;5134482;27;20080;-68
2022/07/10 04:20:18;;;;;;;6.63;1.45;;;;;;;;;;5133476;27;20070;-68
2022/07/10 04:22:44;;;;;;;8.40;1.30;;;;;;;;;;5134342;27;20039;-68
2022/07/10 04:25:10;;;;;;;8.90;1.60;;;;;;;;;;5133437;27;20619;-68
2022/07/10 04:27:36;;;;;;;7.90;1.23;;;;;;;;;;5111486;28;20051;-68
2022/07/10 04:30:03;;;;;;;6.82;1.25;;;;;;;;;;5113319;28;20519;-68
2022/07/10 04:32:29;;;;;;;8.05;1.23;;;;;;;;;;5113364;28;20063;-68
2022/07/10 04:34:56;;;;;;;7.65;1.40;;;;;;;;;;5112856;28;20036;-68
2022/07/10 04:37:22;;;;;;;5.68;1.05;;;;;;;;;;5113093;28;20035;-68
2022/07/10 04:39:48;;;;;;;8.05;1.23;;;;;;;;;;5111151;28;20051;-68
2022/07/10 04:42:14;;;;;;;5.05;1.27;;;;;;;;;;5112590;28;20058;-68
2022/07/10 04:44:40;;;;;;;7.30;1.27;;;;;;;;;;5113386;28;20043;-68
2022/07/10 04:47:06;;;;;;;6.03;1.15;;;;;;;;;;5112960;28;20117;-68
2022/07/10 04:49:33;;;;;;;8.43;1.15;;;;;;;;;;5112406;28;20039;-68
2022/07/10 04:51:59;;;;;;;8.77;1.50;;;;;;;;;;5113002;28;20130;-68
2022/07/10 04:54:25;;;;;;;7.60;1.40;;;;;;;;;;5113278;27;20081;-68
2022/07/10 04:56:51;;;;;;;8.50;1.42;;;;;;;;;;5112351;28;20482;-68
2022/07/10 04:59:17;;;;;;;10.27;1.98;;;;;;;;;;5113120;28;20073;-68
2022/07/10 05:01:43;;;;;;;6.38;1.40;;;;;;;;;;5112777;28;20039;-68
2022/07/10 05:04:10;;;;;;;7.20;1.45;;;;;;;;;;5112080;28;20444;-68
2022/07/10 05:06:36;;;;;;;5.53;1.20;;;;;;;;;;5112871;28;20134;-69
2022/07/10 05:09:02;;;;;;;6.97;2.45;;;;;;;;;;5112769;28;20126;-69
2022/07/10 05:11:29;;;;;;;8.60;1.75;;;;;;;;;;5111766;28;20122;-69
2022/07/10 05:13:55;;;;;;;10.10;1.83;;;;;;;;;;5112840;28;20084;-69
2022/07/10 05:16:21;;;;;;;8.40;1.52;;;;;;;;;;5112791;28;20428;-69
2022/07/10 05:18:47;;;;;;;8.10;1.70;;;;;;;;;;5110425;28;20050;-69
2022/07/10 05:21:13;;;;;;;9.38;1.60;;;;;;;;;;5111065;28;20667;-69
2022/07/10 05:23:39;;;;;;;11.75;2.13;;;;;;;;;;5112583;28;20039;-69
2022/07/10 05:26:06;;;;;;;8.57;1.60;;;;;;;;;;5120475;27;20556;-69
2022/07/10 05:28:32;;;;;;;10.05;1.85;;;;;;;;;;5132834;27;20050;-69
2022/07/10 05:30:58;;;;;;;9.40;1.98;;;;;;;;;;5132953;27;20043;-69
2022/07/10 05:33:26;;;;;;;18.52;3.17;;;;;;;;;;5132258;27;20039;-69
2022/07/10 05:35:52;;;;;;;11.50;1.92;;;;;;;;;;5132711;27;20039;-69
2022/07/10 05:38:18;;;;;;;9.45;2.10;;;;;;;;;;5132839;27;20117;-69
2022/07/10 05:40:44;;;;;;;16.23;2.60;;;;;;;;;;5132158;27;20035;-69
2022/07/10 05:43:11;;;;;;;9.68;1.83;;;;;;;;;;5132773;27;20512;-69
2022/07/10 05:45:37;;;;;;;12.18;2.38;;;;;;;;;;5131686;27;20382;-69
2022/07/10 05:48:03;;;;;;;11.25;2.03;;;;;;;;;;5131907;27;20035;-69
2022/07/10 05:50:30;;;;;;;10.15;3.00;;;;;;;;;;5132385;27;20092;-69
2022/07/10 05:52:56;;;;;;;8.38;1.98;;;;;;;;;;5132692;27;20070;-69
2022/07/10 05:55:23;;;;;;;6.65;2.08;;;;;;;;;;5132000;27;20039;-69
2022/07/10 05:57:50;;;;;;;12.05;2.65;;;;;;;;;;5131082;27;20074;-69
2022/07/10 06:00:16;;;;;;;11.10;2.25;;;;;;;;;;5132720;27;20043;-69
2022/07/10 06:02:42;;;;;;;12.85;2.38;;;;;;;;;;5131930;27;20822;-69
2022/07/10 06:05:09;;;;;;;12.70;2.20;;;;;;;;;;5132183;27;20088;-69
2022/07/10 06:07:35;;;;;;;13.27;2.33;;;;;;;;;;5132539;27;20489;-69
2022/07/10 06:10:02;;;;;;;8.32;2.30;;;;;;;;;;5131571;27;20049;-69
2022/07/10 06:12:28;;;;;;;9.25;2.72;;;;;;;;;;5132253;27;20039;-69
2022/07/10 06:14:54;;;;;;;13.27;2.85;;;;;;;;;;5132551;27;20039;-69
2022/07/10 06:17:20;;;;;;;10.05;2.10;;;;;;;;;;5131990;27;20118;-69
2022/07/10 06:19:46;;;;;;;12.15;2.58;;;;;;;;;;5131178;28;20050;-69
2022/07/10 06:22:30;;;;;;;8.48;2.10;;;;;;;;;;5132451;27;20039;-69
2022/07/10 06:24:57;;;;;;;13.93;2.40;;;;;;;;;;5131826;27;20047;-69
2022/07/10 06:27:23;;;;;;;9.70;2.42;;;;;;;;;;5112667;27;20044;-68
2022/07/10 06:29:49;;;;;;;10.20;2.38;;;;;;;;;;5111856;28;20576;-68
2022/07/10 06:32:15;;;;;;;12.85;1.80;;;;;;;;;;5110844;28;20050;-68
2022/07/10 06:34:41;;;;;;;6.13;1.92;;;;;;;;;;5110504;28;20401;-68
2022/07/10 06:37:07;;;;;;;8.60;1.73;;;;;;;;;;5111843;28;20549;-68
2022/07/10 06:39:37;;;;;;;6.10;1.58;;;;;;;;;;5109915;28;20054;-68
2022/07/10 06:42:03;;;;;;;9.15;2.15;;;;;;;;;;5111719;28;20039;-68
2022/07/10 06:44:29;;;;;;;13.43;2.45;;;;;;;;;;5111668;28;20039;-68
2022/07/10 06:49:41;;;;;;;9.30;1.70;;;;;;;;;;5111509;28;20088;-68
2022/07/10 06:52:07;;;;;;;12.82;2.17;;;;;;;;;;5109890;28;20036;-68
2022/07/10 06:54:33;;;;;;;11.52;2.38;;;;;;;;;;5111126;28;20077;-68
2022/07/10 06:56:59;;;;;;;8.15;1.40;;;;;;;;;;5111686;28;20031;-68
2022/07/10 06:59:25;;;;;;;5.43;1.52;;;;;;;;;;5111550;28;20042;-68
2022/07/10 07:01:52;;;;;;;6.00;1.40;;;;;;;;;;5111173;28;20047;-68
2022/07/10 07:04:17;;;;;;;5.70;1.40;;;;;;;;;;5114998;28;20410;-68
2022/07/10 07:06:43;;;;;;;6.38;1.55;;;;;;;;;;5115321;27;20063;-68
2022/07/10 07:09:10;;;;;;;4.97;1.35;;;;;;;;;;5114256;28;20043;-68
2022/07/10 07:11:36;;;;;;;6.75;1.70;;;;;;;;;;5114662;28;20169;-68
2022/07/10 07:14:02;;;;;;;10.43;1.90;;;;;;;;;;5114851;28;20040;-68
2022/07/10 07:16:38;;;;;;;5.60;1.38;;;;;;;;;;5114446;28;20036;-69
2022/07/10 07:19:05;;;;;;;6.07;1.52;;;;;;;;;;5115105;28;20090;-69
2022/07/10 07:24:20;;;;;;;4.82;1.33;;;;;;;;;;5112711;28;20047;-69
2022/07/10 07:26:49;;;;;;;5.85;1.42;;;;;;;;;;5127625;27;20130;-69
2022/07/10 07:29:16;;;;;;;3.92;1.35;;;;;;;;;;5135288;27;20039;-68
2022/07/10 07:31:42;;;;;;;4.82;1.35;;;;;;;;;;5134569;27;20032;-68
2022/07/10 07:34:09;;;;;;;5.57;2.17;;;;;;;;;;5135181;27;20035;-68
2022/07/10 07:36:35;;;;;;;4.45;1.40;;;;;;;;;;5135366;27;20043;-69
2022/07/10 07:39:01;;;;;;;4.88;1.40;;;;;;;;;;5133284;27;20126;-68
2022/07/10 07:41:27;;;;;;;7.10;1.52;;;;;;;;;;5135066;27;20039;-68
2022/07/10 07:43:53;;;;;;;3.97;1.60;;;;;;;;;;5135013;27;20043;-68
2022/07/10 07:46:20;;;;;;;4.70;1.20;;;;;;;;;;5132882;27;20047;-68
2022/07/10 07:48:46;;;;;;;4.25;1.38;;;;;;;;;;5134927;27;20047;-69
2022/07/10 07:51:13;;;;;;;5.35;1.33;;;;;;;;;;5134907;27;20404;-69
2022/07/10 07:53:39;;;;;;;3.90;1.40;;;;;;;;;;5132760;27;20071;-69
2022/07/10 07:56:05;;;;;;;5.90;1.38;;;;;;;;;;5134902;27;20419;-69
2022/07/10 07:58:31;;;;;;;6.55;1.25;;;;;;;;;;5133584;27;20073;-69
2022/07/10 08:00:58;;;;;;;4.80;0.95;;;;;;;;;;5133958;27;20046;-69
2022/07/10 08:03:24;;;;;;;4.13;1.30;;;;;;;;;;5134678;27;20031;-69
2022/07/10 08:05:50;;;;;;;6.38;1.75;;;;;;;;;;5134260;27;20363;-69
2022/07/10 08:08:16;;;;;;;5.20;1.02;;;;;;;;;;5133906;27;20092;-69
2022/07/10 08:10:43;;;;;;;2.83;1.20;;;;;;;;;;5134417;27;20043;-69
2022/07/10 08:13:09;;;;;;;5.55;1.30;;;;;;;;;;5134533;27;20418;-69
2022/07/10 08:15:35;;;;;;;7.60;1.55;;;;;;;;;;5132751;27;20121;-69
2022/07/10 08:18:03;;;;;;;3.90;1.10;;;;;;;;;;5134399;27;20039;-69
2022/07/10 08:20:29;;;;;;;2.97;1.00;;;;;;;;;;5134401;27;20385;-69
2022/07/10 08:22:55;;;;;;;4.20;1.10;;;;;;;;;;5134157;27;20046;-69
2022/07/10 08:25:22;;;;;;;4.53;1.02;;;;;;;;;;5131511;27;20085;-69
2022/07/10 08:27:47;;;;;;;8.23;1.25;;;;;;;;;;5113784;28;20398;-69
2022/07/10 08:30:14;;;;;;;4.57;1.10;;;;;;;;;;5113107;28;20046;-69
2022/07/10 08:32:40;;;;;;;4.30;1.10;;;;;;;;;;5112845;28;20031;-69
2022/07/10 08:35:07;;;;;;;5.22;0.90;;;;;;;;;;5113681;27;20035;-69
2022/07/10 08:37:43;;;;;;;5.97;1.25;;;;;;;;;;5113712;27;20042;-69
2022/07/10 08:40:11;;;;;;;6.00;0.95;;;;;;;;;;5112774;28;20043;-69
2022/07/10 08:42:37;;;;;;;4.07;0.95;;;;;;;;;;5113369;28;20050;-69
2022/07/10 08:45:03;;;;;;;4.85;1.08;;;;;;;;;;5113081;28;20118;-69
2022/07/10 08:47:31;;;;;;;2.72;0.93;;;;;;;;;;5112733;28;20549;-69
2022/07/10 08:49:57;;;;;;;6.13;1.30;;;;;;;;;;5113240;28;20179;-69
2022/07/10 08:52:26;;;;;;;5.50;1.50;;;;;;;;;;5113065;28;20055;-69
2022/07/10 08:54:53;;;;;;;3.95;1.08;;;;;;;;;;5112588;28;20032;-69
2022/07/10 08:57:20;;;;;;;3.53;1.10;;;;;;;;;;5113149;28;20471;-69
2022/07/10 08:59:46;;;;;;;4.88;1.55;;;;;;;;;;5113045;28;20040;-69
2022/07/10 09:02:12;;;;;;;4.47;1.38;;;;;;;;;;5112418;28;20127;-69
2022/07/10 09:04:38;;;;;;;4.72;1.25;;;;;;;;;;5112531;28;20060;-69
2022/07/10 09:07:05;;;;;;;4.88;1.20;;;;;;;;;;5113088;28;20048;-69
2022/07/10 09:09:32;;;;;;;2.47;1.10;;;;;;;;;;5111786;28;20129;-69
2022/07/10 09:11:59;;;;;;;2.50;1.13;;;;;;;;;;5112608;27;20051;-69
2022/07/10 09:14:28;;;;;;;3.42;1.23;;;;;;;;;;5112753;28;20047;-69
2022/07/10 09:16:54;;;;;;;6.95;1.48;;;;;;;;;;5112241;28;20348;-69
2022/07/10 09:19:20;;;;;;;5.47;1.30;;;;;;;;;;5112801;28;20057;-69
2022/07/10 09:21:47;;;;;;;3.35;1.13;;;;;;;;;;5112543;28;20118;-69
2022/07/10 09:24:14;;;;;;;7.80;1.60;;;;;;;;;;5111981;28;20489;-69
2022/07/10 09:26:42;;;;;;;8.00;1.65;;;;;;;;;;5125594;27;20050;-69
2022/07/10 09:29:12;;;;;;;5.40;1.60;;;;;;;;;;5132652;27;20093;-69
2022/07/10 09:31:51;;;;;;;9.27;1.70;;;;;;;;;;5132284;27;20477;-69
2022/07/10 09:34:17;;;;;;;4.63;1.35;;;;;;;;;;5133150;27;20088;-69
2022/07/10 09:36:43;;;;;;;5.97;1.58;;;;;;;;;;5133015;27;20039;-69
2022/07/10 09:39:10;;;;;;;6.25;1.60;;;;;;;;;;5132398;27;20431;-68
2022/07/10 09:41:36;;;;;;;7.80;2.35;;;;;;;;;;5132517;27;20091;-68
2022/07/10 09:44:03;;;;;;;2.75;1.30;;;;;;;;;;5132902;27;20053;-68
2022/07/10 09:46:33;;;;;;;4.18;1.50;;;;;;;;;;5130984;27;20047;-68
2022/07/10 09:49:07;;;;;;;5.13;1.50;;;;;;;;;;5132845;27;20088;-68
2022/07/10 09:51:40;;;;;;;7.68;1.77;;;;;;;;;;5132160;27;20102;-68
2022/07/10 09:54:07;;;;;;;10.57;1.88;;;;;;;;;;5132136;27;20046;-68
2022/07/10 09:56:34;;;;;;;3.15;1.60;;;;;;;;;;5132642;27;20436;-69
2022/07/10 09:59:01;;;;;;;6.40;1.60;;;;;;;;;;5132801;27;20035;-68
2022/07/10 10:01:30;;;;;;;3.50;1.30;;;;;;;;;;5132151;27;20039;-68
2022/07/10 10:03:56;;;;;;;3.55;1.40;;;;;;;;;;5130997;27;20402;-68
2022/07/10 10:06:22;;;;;;;4.63;1.65;;;;;;;;;;5132267;27;20054;-68
2022/07/10 10:08:49;;;;;;;6.63;1.33;;;;;;;;;;5132102;27;20043;-68
2022/07/10 10:11:16;;;;;;;3.58;1.30;;;;;;;;;;5132457;27;20423;-69
2022/07/10 10:13:42;;;;;;;6.65;1.48;;;;;;;;;;5131204;28;20039;-68
2022/07/10 10:16:09;;;;;;;5.35;1.95;;;;;;;;;;5131880;27;20420;-68
2022/07/10 10:18:35;;;;;;;8.05;1.95;;;;;;;;;;5132385;27;20031;-68
2022/07/10 10:21:01;;;;;;;7.40;1.55;;;;;;;;;;5132379;27;20126;-68
2022/07/10 10:23:28;;;;;;;7.68;1.90;;;;;;;;;;5131833;27;20433;-68
2022/07/10 10:25:56;;;;;;;6.35;1.60;;;;;;;;;;5125258;27;20404;-68
2022/07/10 10:28:25;;;;;;;5.18;1.88;;;;;;;;;;5110454;28;20039;-68
2022/07/10 10:30:57;;;;;;;3.85;2.00;;;;;;;;;;5111068;28;20042;-68
2022/07/10 10:33:32;;;;;;;4.32;1.65;;;;;;;;;;5111843;28;20036;-68
2022/07/10 10:36:02;;;;;;;4.25;1.40;;;;;;;;;;5111497;28;20047;-68
2022/07/10 10:38:46;;;;;;;6.07;1.73;;;;;;;;;;5114526;28;20075;-68
2022/07/10 10:41:26;;;;;;;8.52;1.88;;;;;;;;;;5115664;28;20106;-68
2022/07/10 10:44:25;;;;;;;7.80;2.25;;;;;;;;;;5113978;28;20054;-68
2022/07/10 10:46:54;;;;;;;6.57;1.70;;;;;;;;;;5080963;28;20082;-68
2022/07/10 10:49:21;;;;;;;7.50;1.40;;;;;;;;;;5114078;28;20055;-68
2022/07/10 10:52:04;;;;;;;7.00;1.80;;;;;;;;;;5114862;28;20507;-68
2022/07/10 10:54:31;;;;;;;9.02;1.83;;;;;;;;;;5115589;28;20024;-68
2022/07/10 10:57:13;;;;;;;4.28;1.55;;;;;;;;;;5113994;28;20051;-69
2022/07/10 10:59:49;;;;;;;2.63;1.30;;;;;;;;;;5114955;28;20040;-69
2022/07/10 11:02:22;;;;;;;6.20;1.63;;;;;;;;;;5115104;28;20465;-69
2022/07/10 11:04:50;;;;;;;4.38;1.42;;;;;;;;;;5114898;28;20059;-68
2022/07/10 11:07:35;;;;;;;5.30;1.52;;;;;;;;;;5114775;28;20373;-68
2022/07/10 11:10:19;;;;;;;5.60;1.58;;;;;;;;;;5115355;28;20035;-68
2022/07/10 11:13:04;;;;;;;5.25;1.63;;;;;;;;;;5115201;28;20127;-68
2022/07/10 11:15:32;;;;;;;5.85;1.80;;;;;;;;;;5114846;28;20036;-68
2022/07/10 11:17:59;;;;;;;8.05;1.67;;;;;;;;;;5115195;28;20048;-68
2022/07/10 11:20:25;;;;;;;3.97;1.52;;;;;;;;;;5115219;28;20044;-68
2022/07/10 11:22:54;;;;;;;7.53;2.08;;;;;;;;;;5114567;28;20497;-68
2022/07/10 11:25:24;;;;;;;3.80;1.63;;;;;;;;;;5117219;27;20039;-68
2022/07/10 11:27:51;;;;;;;4.60;1.30;;;;;;;;;;5135584;27;20096;-68
2022/07/10 11:30:17;;;;;;;4.43;1.85;;;;;;;;;;5134831;27;20104;-68
2022/07/10 11:32:43;;;;;;;5.78;1.60;;;;;;;;;;5135196;27;20728;-68
2022/07/10 11:35:13;;;;;;;4.50;1.50;;;;;;;;;;5135559;27;20472;-68
2022/07/10 11:37:52;;;;;;;4.97;1.17;;;;;;;;;;5134817;27;20091;-68
2022/07/10 11:40:19;;;;;;;3.92;1.23;;;;;;;;;;5135148;27;20051;-68
2022/07/10 11:43:06;;;;;;;3.00;1.40;;;;;;;;;;5134862;27;20046;-68
2022/07/10 11:45:35;;;;;;;4.75;1.45;;;;;;;;;;5135247;27;20047;-68
2022/07/10 11:48:01;;;;;;;3.55;1.50;;;;;;;;;;5134774;27;20457;-68
2022/07/10 11:50:27;;;;;;;6.60;1.70;;;;;;;;;;5134474;27;20043;-68
2022/07/10 11:52:54;;;;;;;7.30;1.42;;;;;;;;;;5135008;27;20039;-68
2022/07/10 11:55:21;;;;;;;4.78;1.40;;;;;;;;;;5135159;27;20087;-68
2022/07/10 11:57:50;;;;;;;7.43;1.52;;;;;;;;;;5134374;27;20031;-68
2022/07/10 12:00:27;;;;;;;3.10;1.45;;;;;;;;;;5134856;27;20103;-68
2022/07/10 12:02:55;;;;;;;4.00;1.50;;;;;;;;;;5134791;27;20558;-68
2022/07/10 12:05:31;;;;;;;2.47;1.08;;;;;;;;;;5133890;27;20059;-68
2022/07/10 12:07:57;;;;;;;8.88;2.08;;;;;;;;;;5134802;27;20398;-69
2022/07/10 12:10:26;;;;;;;5.13;1.63;;;;;;;;;;5134840;27;20572;-69
2022/07/10 12:12:52;;;;;;;5.85;1.60;;;;;;;;;;5132601;27;20031;-69
2022/07/10 12:15:32;;;;;;;7.07;2.13;;;;;;;;;;5134419;27;20050;-69
2022/07/10 12:17:59;;;;;;;4.80;1.60;;;;;;;;;;5134610;27;20096;-69
2022/07/10 12:20:25;;;;;;;6.82;1.55;;;;;;;;;;5134011;27;20461;-68
2022/07/10 12:22:53;;;;;;;3.58;1.52;;;;;;;;;;5132985;27;20422;-68
2022/07/10 12:25:20;;;;;;;5.70;1.80;;;;;;;;;;5134394;27;20122;-68
2022/07/10 12:27:46;;;;;;;4.78;1.48;;;;;;;;;;5133817;27;20046;-68
2022/07/10 12:30:12;;;;;;;6.78;1.90;;;;;;;;;;5133975;27;20081;-68
2022/07/10 12:32:38;;;;;;;7.43;1.63;;;;;;;;;;5134243;27;20514;-69
2022/07/10 12:35:07;;;;;;;4.13;1.35;;;;;;;;;;5133701;27;20493;-69
2022/07/10 12:37:33;;;;;;;8.10;1.90;;;;;;;;;;5134225;27;20826;-69
2022/07/10 12:39:59;;;;;;;7.60;2.60;;;;;;;;;;5134450;27;20122;-69
2022/07/10 12:42:32;;;;;;;4.40;1.80;;;;;;;;;;5132914;27;20121;-69
2022/07/10 12:45:11;;;;;;;7.18;2.03;;;;;;;;;;5134123;27;20083;-69
2022/07/10 12:47:45;;;;;;;11.05;2.05;;;;;;;;;;5133857;27;20053;-69
2022/07/10 12:50:12;;;;;;;5.80;1.65;;;;;;;;;;5132955;27;20047;-69
2022/07/10 12:52:39;;;;;;;8.50;1.80;;;;;;;;;;5133709;27;20062;-68
2022/07/10 12:55:10;;;;;;;8.85;1.95;;;;;;;;;;5133860;27;20122;-68
2022/07/10 12:57:49;;;;;;;5.20;1.65;;;;;;;;;;5133203;27;20039;-68
2022/07/10 13:00:16;;;;;;;6.13;1.80;;;;;;;;;;5132780;27;20039;-68
2022/07/10 13:02:42;;;;;;;5.50;1.50;;;;;;;;;;5133511;27;20051;-68
2022/07/10 13:05:08;;;;;;;5.70;1.55;;;;;;;;;;5132619;27;20548;-68
2022/07/10 13:07:35;;;;;;;5.68;1.60;;;;;;;;;;5131958;27;20095;-68
2022/07/10 13:10:07;;;;;;;5.55;1.40;;;;;;;;;;5133429;27;20047;-68
2022/07/10 13:12:33;;;;;;;;;;;;;;;;;;5133286;27;20130;-68
2022/07/10 13:15:00;;;;;;;3.17;1.30;;;;;;;;;;5133466;27;20556;-68
2022/07/10 13:17:26;;;;;;;4.93;1.33;;;;;;;;;;5133404;27;20122;-69
2022/07/10 13:19:52;;;;;;;4.78;1.40;;;;;;;;;;5132757;27;20050;-69
2022/07/10 13:22:18;;;;;;;6.00;1.35;;;;;;;;;;5133142;27;20188;-69
2022/07/10 13:24:44;;;;;;;4.82;1.40;;;;;;;;;;5132099;27;20126;-69
2022/07/10 13:27:12;;;;;;;5.43;1.95;;;;;;;;;;5114825;27;20437;-69
2022/07/10 13:29:38;;;;;;;4.47;1.40;;;;;;;;;;5112575;28;20079;-69
2022/07/10 13:32:04;;;;;;;3.30;1.17;;;;;;;;;;5112138;28;20043;-69
2022/07/10 13:34:30;;;;;;;8.40;1.83;;;;;;;;;;5112005;28;20531;-69
2022/07/10 13:36:56;;;;;;;4.82;1.40;;;;;;;;;;5112472;28;20039;-69
2022/07/10 13:39:22;;;;;;;4.72;1.30;;;;;;;;;;5112515;28;20500;-69
2022/07/10 13:41:48;;;;;;;4.38;1.23;;;;;;;;;;5111724;28;20435;-69
2022/07/10 13:44:15;;;;;;;4.97;1.40;;;;;;;;;;5112481;28;20047;-69
2022/07/10 13:46:41;;;;;;;6.15;1.75;;;;;;;;;;5112466;28;20039;-69
2022/07/10 13:49:07;;;;;;;6.38;1.30;;;;;;;;;;5111746;28;20478;-69
2022/07/10 13:51:33;;;;;;;9.32;1.80;;;;;;;;;;5112193;28;20071;-69
2022/07/10 13:54:00;;;;;;;6.57;1.40;;;;;;;;;;5111871;28;20507;-69
2022/07/10 13:56:26;;;;;;;3.53;1.30;;;;;;;;;;5111556;27;20039;-69
2022/07/10 13:58:52;;;;;;;6.03;1.10;;;;;;;;;;5112359;28;20047;-68
2022/07/10 14:01:18;;;;;;;7.85;1.50;;;;;;;;;;5112425;28;20036;-68
2022/07/10 14:03:44;;;;;;;3.03;1.15;;;;;;;;;;5111421;28;20044;-69
2022/07/10 14:06:10;;;;;;;5.00;1.55;;;;;;;;;;5112180;28;20048;-69
2022/07/10 14:08:36;;;;;;;5.88;1.50;;;;;;;;;;5112083;28;20110;-69
2022/07/10 14:11:03;;;;;;;5.00;1.40;;;;;;;;;;5113066;28;20051;-69
2022/07/10 14:13:29;;;;;;;6.13;1.27;;;;;;;;;;5118760;27;20043;-69
2022/07/10 14:15:55;;;;;;;5.28;1.45;;;;;;;;;;5119103;27;20031;-69
2022/07/10 14:18:38;;;;;;;5.68;1.50;;;;;;;;;;5118244;27;20041;-69
2022/07/10 14:21:08;;;;;;;2.90;1.30;;;;;;;;;;5118793;27;20069;-69
2022/07/10 14:23:34;;;;;;;4.70;1.13;;;;;;;;;;5118668;28;20044;-69
2022/07/10 14:26:01;;;;;;;3.65;1.40;;;;;;;;;;5125742;27;20104;-69
2022/07/10 14:28:27;;;;;;;5.60;1.30;;;;;;;;;;5139357;27;20067;-69
2022/07/10 14:30:53;;;;;;;5.07;1.40;;;;;;;;;;5138793;27;20043;-69
2022/07/10 14:33:20;;;;;;;4.40;1.60;;;;;;;;;;5138361;27;20046;-69
2022/07/10 14:35:46;;;;;;;5.47;1.50;;;;;;;;;;5139090;27;20083;-69
2022/07/10 14:38:12;;;;;;;7.68;1.13;;;;;;;;;;5139387;27;20488;-69
2022/07/10 14:40:38;;;;;;;6.88;1.80;;;;;;;;;;5137284;27;20053;-69
2022/07/10 14:43:04;;;;;;;4.55;1.25;;;;;;;;;;5139188;27;20050;-69
2022/07/10 14:45:30;;;;;;;3.58;1.23;;;;;;;;;;5139173;27;20389;-69
2022/07/10 14:47:57;;;;;;;6.20;1.58;;;;;;;;;;5138618;27;20046;-69
2022/07/10 14:50:23;;;;;;;3.35;1.30;;;;;;;;;;5138815;27;20136;-69